createdAt,value
2022-09-23T00:02:07.358Z,28.61
2022-09-23T00:04:57.427Z,28.76
2022-09-23T00:07:47.606Z,28.88
2022-09-23T00:10:40.969Z,28.91
2022-09-23T00:13:31.795Z,28.93
2022-09-23T00:16:29.780Z,28.97
2022-09-23T00:19:19.846Z,29.06
2022-09-23T00:22:10.347Z,29.14
2022-09-23T00:25:04.170Z,29.31
2022-09-23T00:27:54.873Z,29.30
2022-09-23T00:30:46.283Z,29.32
2022-09-23T00:33:36.821Z,29.50
2022-09-23T00:36:28.298Z,29.61
2022-09-23T00:39:19.631Z,29.65
2022-09-23T00:42:17.797Z,29.67
2022-09-23T00:45:12.998Z,29.61
2022-09-23T00:48:07.739Z,29.61
2022-09-23T00:50:58.685Z,29.51
2022-09-23T00:53:51.188Z,29.42
2022-09-23T00:56:41.637Z,29.45
2022-09-23T00:59:31.966Z,29.51
2022-09-23T01:02:25.263Z,29.49
2022-09-23T01:05:16.586Z,29.48
2022-09-23T01:08:06.867Z,29.56
2022-09-23T01:11:09.433Z,29.66
2022-09-23T01:14:12.403Z,29.70
2022-09-23T01:17:09.628Z,29.80
2022-09-23T01:20:10.608Z,29.84
2022-09-23T01:23:19.340Z,29.85
2022-09-23T01:26:29.678Z,29.85
2022-09-23T01:29:38.154Z,29.84
2022-09-23T01:32:47.269Z,29.87
2022-09-23T01:35:57.178Z,29.81
2022-09-23T01:38:55.244Z,29.73
2022-09-23T01:41:55.812Z,29.73
2022-09-23T01:44:53.824Z,29.71
2022-09-23T01:47:57.105Z,29.83
2022-09-23T01:51:00.281Z,29.97
2022-09-23T01:54:26.842Z,30.12
2022-09-23T01:57:47.098Z,30.11
2022-09-23T02:00:42.331Z,30.23
2022-09-23T02:03:48.551Z,30.38
2022-09-23T02:06:44.369Z,30.53
2022-09-23T02:09:39.859Z,30.55
2022-09-23T02:12:32.166Z,30.59
2022-09-23T02:15:27.328Z,30.67
2022-09-23T02:18:24.567Z,30.77
2022-09-23T02:21:15.076Z,30.78
2022-09-23T02:24:17.505Z,30.89
2022-09-23T02:27:33.475Z,30.97
2022-09-23T02:30:28.690Z,30.97
2022-09-23T02:33:41.594Z,31.07
2022-09-23T02:36:52.408Z,31.10
2022-09-23T02:39:49.533Z,31.10
2022-09-23T02:42:50.396Z,31.16
2022-09-23T02:45:40.804Z,31.15
2022-09-23T02:49:00.459Z,31.25
2022-09-23T02:51:51.729Z,31.33
2022-09-23T02:54:43.129Z,31.32
2022-09-23T02:57:33.678Z,31.40
2022-09-23T03:00:25.095Z,31.48
2022-09-23T03:03:41.894Z,31.60
2022-09-23T03:07:25.531Z,31.69
2022-09-23T03:10:23.986Z,31.77
2022-09-23T03:13:43.504Z,31.82
2022-09-23T03:17:06.261Z,31.90
2022-09-23T03:20:09.618Z,31.96
2022-09-23T03:23:05.041Z,32.00
2022-09-23T03:25:57.825Z,32.00
2022-09-23T03:28:48.937Z,32.10
2022-09-23T03:31:44.032Z,32.19
2022-09-23T03:34:36.421Z,32.16
2022-09-23T03:37:56.272Z,32.22
2022-09-23T03:40:49.230Z,32.24
2022-09-23T03:43:42.393Z,32.31
2022-09-23T03:46:36.086Z,32.36
2022-09-23T03:49:29.433Z,32.43
2022-09-23T03:52:20.908Z,32.48
2022-09-23T03:55:12.441Z,32.52
2022-09-23T03:58:04.670Z,32.58
2022-09-23T04:00:56.253Z,32.60
2022-09-23T04:03:48.545Z,32.61
2022-09-23T04:06:39.542Z,32.67
2022-09-23T04:09:31.019Z,32.67
2022-09-23T04:12:21.899Z,32.59
2022-09-23T04:15:13.491Z,32.51
2022-09-23T04:18:03.267Z,32.48
2022-09-23T04:20:53.844Z,32.46
2022-09-23T04:23:44.321Z,32.44
2022-09-23T04:26:36.272Z,32.48
2022-09-23T04:29:28.245Z,32.35
2022-09-23T04:32:18.802Z,32.36
2022-09-23T04:35:10.412Z,32.38
2022-09-23T04:38:02.027Z,32.41
2022-09-23T04:40:54.935Z,32.35
2022-09-23T04:43:46.091Z,32.35
2022-09-23T04:46:37.059Z,32.30
2022-09-23T04:49:27.945Z,32.20
2022-09-23T04:52:18.530Z,32.16
2022-09-23T04:55:11.290Z,32.14
2022-09-23T04:58:03.871Z,32.07
2022-09-23T05:00:54.730Z,32.04
2022-09-23T05:03:46.291Z,32.00
2022-09-23T05:06:37.258Z,31.96
2022-09-23T05:09:32.682Z,31.92
2022-09-23T05:12:23.471Z,31.84
2022-09-23T05:15:17.576Z,31.76
2022-09-23T05:18:11.366Z,31.65
2022-09-23T05:21:03.729Z,31.59
2022-09-23T05:23:58.054Z,31.51
2022-09-23T05:26:48.092Z,31.45
2022-09-23T05:29:39.473Z,31.38
2022-09-23T05:32:30.689Z,31.38
2022-09-23T05:35:20.985Z,31.40
2022-09-23T05:38:11.581Z,31.33
2022-09-23T05:41:03.492Z,31.32
2022-09-23T05:43:54.721Z,31.28
2022-09-23T05:46:45.938Z,31.26
2022-09-23T05:49:58.124Z,31.29
2022-09-23T05:52:48.048Z,31.29
2022-09-23T05:55:39.341Z,31.23
2022-09-23T05:58:30.220Z,31.19
2022-09-23T06:01:28.039Z,31.15
2022-09-23T06:04:19.391Z,31.08
2022-09-23T06:07:10.892Z,31.05
2022-09-23T06:10:01.600Z,31.05
2022-09-23T06:12:51.715Z,31.03
2022-09-23T06:15:42.679Z,31.01
2022-09-23T06:18:33.562Z,30.96
2022-09-23T06:21:27.750Z,30.92
2022-09-23T06:24:20.860Z,30.90
2022-09-23T06:27:12.857Z,30.89
2022-09-23T06:30:06.125Z,30.86
2022-09-23T06:32:58.006Z,30.88
2022-09-23T06:35:57.409Z,30.84
2022-09-23T06:38:50.871Z,30.81
2022-09-23T06:41:41.275Z,30.78
2022-09-23T06:44:34.650Z,30.76
2022-09-23T06:47:29.394Z,30.74
2022-09-23T06:50:20.483Z,30.74
2022-09-23T06:53:11.591Z,30.69
2022-09-23T06:56:03.915Z,30.72
2022-09-23T06:58:56.252Z,30.66
2022-09-23T07:01:47.829Z,30.71
2022-09-23T07:04:38.537Z,30.68
2022-09-23T07:07:34.267Z,30.65
2022-09-23T07:10:25.228Z,30.66
2022-09-23T07:13:16.455Z,30.63
2022-09-23T07:16:07.407Z,30.63
2022-09-23T07:18:57.592Z,30.62
2022-09-23T07:21:47.574Z,30.64
2022-09-23T07:24:38.783Z,30.63
2022-09-23T07:27:29.900Z,30.63
2022-09-23T07:30:25.139Z,30.68
2022-09-23T07:33:29.182Z,30.68
2022-09-23T07:36:22.989Z,30.66
2022-09-23T07:39:14.641Z,30.65
2022-09-23T07:42:06.783Z,30.64
2022-09-23T07:44:58.318Z,30.66
2022-09-23T07:47:48.979Z,30.59
2022-09-23T07:50:43.170Z,30.63
2022-09-23T07:53:33.855Z,30.63
2022-09-23T07:56:28.457Z,30.58
2022-09-23T07:59:20.492Z,30.59
2022-09-23T08:02:12.551Z,30.59
2022-09-23T08:05:02.797Z,30.56
2022-09-23T08:07:52.954Z,30.53
2022-09-23T08:10:44.248Z,30.53
2022-09-23T08:13:35.097Z,30.50
2022-09-23T08:16:25.709Z,30.52
2022-09-23T08:19:16.879Z,30.54
2022-09-23T08:22:07.233Z,30.53
2022-09-23T08:24:57.516Z,30.46
2022-09-23T08:27:48.423Z,30.40
2022-09-23T08:30:39.312Z,30.41
2022-09-23T08:33:30.213Z,30.40
2022-09-23T08:36:20.541Z,30.41
2022-09-23T08:39:12.450Z,30.32
2022-09-23T08:42:18.745Z,30.40
2022-09-23T08:45:20.697Z,30.40
2022-09-23T08:48:16.269Z,30.37
2022-09-23T08:51:10.064Z,30.37
2022-09-23T08:54:03.686Z,30.32
2022-09-23T08:56:54.147Z,30.35
2022-09-23T08:59:46.970Z,30.31
2022-09-23T09:02:41.497Z,30.27
2022-09-23T09:05:35.044Z,30.33
2022-09-23T09:08:28.895Z,30.31
2022-09-23T09:11:20.703Z,30.28
2022-09-23T09:14:32.362Z,30.26
2022-09-23T09:17:40.016Z,30.26
2022-09-23T09:20:40.376Z,30.22
2022-09-23T09:23:53.933Z,30.23
2022-09-23T09:26:44.775Z,30.19
2022-09-23T09:29:40.217Z,30.12
2022-09-23T09:32:48.711Z,30.17
2022-09-23T09:35:44.743Z,30.18
2022-09-23T09:38:35.289Z,30.16
2022-09-23T09:41:33.401Z,30.16
2022-09-23T09:44:50.340Z,30.18
2022-09-23T09:47:53.106Z,30.18
2022-09-23T09:50:43.583Z,30.15
2022-09-23T09:53:37.264Z,30.15
2022-09-23T09:56:36.740Z,30.10
2022-09-23T09:59:30.289Z,30.10
2022-09-23T10:02:36.377Z,30.07
2022-09-23T10:05:36.536Z,30.06
2022-09-23T10:08:39.322Z,30.07
2022-09-23T10:11:32.838Z,29.99
2022-09-23T10:14:23.278Z,30.02
2022-09-23T10:17:36.097Z,29.99
2022-09-23T10:20:27.001Z,30.01
2022-09-23T10:23:29.140Z,30.01
2022-09-23T10:26:20.440Z,29.98
2022-09-23T10:29:35.199Z,30.01
2022-09-23T10:32:28.848Z,29.92
2022-09-23T10:35:25.918Z,29.97
2022-09-23T10:38:17.159Z,29.94
2022-09-23T10:41:57.339Z,29.96
2022-09-23T10:45:08.759Z,29.95
2022-09-23T10:48:17.090Z,29.94
2022-09-23T10:51:29.054Z,29.94
2022-09-23T10:54:42.139Z,29.97
2022-09-23T10:57:48.075Z,29.92
2022-09-23T11:00:48.346Z,29.95
2022-09-23T11:03:47.822Z,29.96
2022-09-23T11:06:46.867Z,29.95
2022-09-23T11:10:23.219Z,29.95
2022-09-23T11:13:54.413Z,29.95
2022-09-23T11:16:47.979Z,29.89
2022-09-23T11:19:57.397Z,29.91
2022-09-23T11:23:26.623Z,29.99
2022-09-23T11:26:50.244Z,29.95
2022-09-23T11:29:55.404Z,29.95
2022-09-23T11:33:07.073Z,29.94
2022-09-23T11:36:07.148Z,29.93
2022-09-23T11:38:59.577Z,29.90
2022-09-23T11:41:56.923Z,29.89
2022-09-23T11:44:51.361Z,29.81
2022-09-23T11:47:49.793Z,29.76
2022-09-23T11:50:40.590Z,29.69
2022-09-23T11:53:43.018Z,29.65
2022-09-23T11:56:45.045Z,29.60
2022-09-23T11:59:41.843Z,29.52
2022-09-23T12:02:35.685Z,29.46
2022-09-23T12:05:29.155Z,29.41
2022-09-23T12:08:20.194Z,29.37
2022-09-23T12:11:32.730Z,29.33
2022-09-23T12:14:51.619Z,29.28
2022-09-23T12:17:45.228Z,29.21
2022-09-23T12:21:00.986Z,29.22
2022-09-23T12:24:04.339Z,29.20
2022-09-23T12:27:01.057Z,29.19
2022-09-23T12:29:54.767Z,29.17
2022-09-23T12:32:46.988Z,29.16
2022-09-23T12:35:42.872Z,29.19
2022-09-23T12:38:43.862Z,29.16
2022-09-23T12:41:42.913Z,29.20
2022-09-23T12:44:38.256Z,29.21
2022-09-23T12:47:40.429Z,29.23
2022-09-23T12:50:55.083Z,29.26
2022-09-23T12:53:57.683Z,29.17
2022-09-23T12:56:57.482Z,29.18
2022-09-23T12:59:55.174Z,29.15
2022-09-23T13:03:09.419Z,29.15
2022-09-23T13:06:21.667Z,29.17
2022-09-23T13:09:34.294Z,29.18
2022-09-23T13:12:41.147Z,29.03
2022-09-23T13:15:38.895Z,29.14
2022-09-23T13:18:57.311Z,29.17
2022-09-23T13:21:48.061Z,29.16
2022-09-23T13:24:55.858Z,29.17
2022-09-23T13:27:52.214Z,29.13
2022-09-23T13:30:53.577Z,29.15
2022-09-23T13:33:44.955Z,29.12
2022-09-23T13:36:48.965Z,29.11
2022-09-23T13:39:42.002Z,29.12
2022-09-23T13:42:36.035Z,29.11
2022-09-23T13:45:28.448Z,29.11
2022-09-23T13:48:19.352Z,29.07
2022-09-23T13:51:13.220Z,29.07
2022-09-23T13:54:05.795Z,29.08
2022-09-23T13:56:57.116Z,29.03
2022-09-23T13:59:47.855Z,29.06
2022-09-23T14:02:44.912Z,29.05
2022-09-23T14:05:37.865Z,29.08
2022-09-23T14:08:30.731Z,29.06
2022-09-23T14:11:22.090Z,29.03
2022-09-23T14:14:20.150Z,29.06
2022-09-23T14:17:14.231Z,29.06
2022-09-23T14:20:05.047Z,29.06
2022-09-23T14:23:12.026Z,29.17
2022-09-23T14:26:04.430Z,29.19
2022-09-23T14:28:54.954Z,29.20
2022-09-23T14:31:58.217Z,29.17
2022-09-23T14:34:51.568Z,29.20
2022-09-23T14:38:02.491Z,29.20
2022-09-23T14:40:53.639Z,29.23
2022-09-23T14:44:07.850Z,29.29
2022-09-23T14:47:00.593Z,29.24
2022-09-23T14:50:11.769Z,29.26
2022-09-23T14:53:02.229Z,29.28
2022-09-23T14:56:10.657Z,29.29
2022-09-23T14:59:02.365Z,29.28
2022-09-23T15:01:52.862Z,29.27
2022-09-23T15:04:44.099Z,29.30
2022-09-23T15:07:35.236Z,29.28
2022-09-23T15:10:30.634Z,29.29
2022-09-23T15:13:32.863Z,29.30
2022-09-23T15:16:30.580Z,29.29
2022-09-23T15:19:23.025Z,29.23
2022-09-23T15:22:14.458Z,29.24
2022-09-23T15:25:22.397Z,29.27
2022-09-23T15:28:12.858Z,29.27
2022-09-23T15:31:04.617Z,29.22
2022-09-23T15:34:03.460Z,29.26
2022-09-23T15:36:53.798Z,29.24
2022-09-23T15:39:44.358Z,29.26
2022-09-23T15:42:34.949Z,29.23
2022-09-23T15:45:37.389Z,29.24
2022-09-23T15:48:34.011Z,29.23
2022-09-23T15:51:27.998Z,29.22
2022-09-23T15:54:18.537Z,29.20
2022-09-23T15:57:10.691Z,29.17
2022-09-23T16:00:01.033Z,29.16
2022-09-23T16:03:02.555Z,29.14
2022-09-23T16:05:53.221Z,29.14
2022-09-23T16:08:45.500Z,29.13
2022-09-23T16:11:37.414Z,29.14
2022-09-23T16:14:27.940Z,29.12
2022-09-23T16:17:18.542Z,29.13
2022-09-23T16:20:10.041Z,29.13
2022-09-23T16:23:07.923Z,29.15
2022-09-23T16:25:59.333Z,29.17
2022-09-23T16:28:51.954Z,29.14
2022-09-23T16:31:42.746Z,29.12
2022-09-23T16:34:36.125Z,29.11
2022-09-23T16:37:26.402Z,29.11
2022-09-23T16:40:22.089Z,29.05
2022-09-23T16:43:13.202Z,29.08
2022-09-23T16:46:03.584Z,29.08
2022-09-23T16:48:53.465Z,29.07
2022-09-23T16:51:43.451Z,29.02
2022-09-23T16:54:33.564Z,28.99
2022-09-23T16:57:23.879Z,28.98
2022-09-23T17:00:35.222Z,28.98
2022-09-23T17:03:43.570Z,28.98
2022-09-23T17:06:33.081Z,28.98
2022-09-23T17:09:28.854Z,28.96
2022-09-23T17:12:36.358Z,28.98
2022-09-23T17:15:26.592Z,28.99
2022-09-23T17:18:19.532Z,28.98
2022-09-23T17:21:10.335Z,28.98
2022-09-23T17:24:00.441Z,28.95
2022-09-23T17:26:52.976Z,28.95
2022-09-23T17:29:46.197Z,28.95
2022-09-23T17:32:39.020Z,28.94
2022-09-23T17:35:29.687Z,28.95
2022-09-23T17:38:19.526Z,28.94
2022-09-23T17:41:10.740Z,28.94
2022-09-23T17:44:02.046Z,28.93
2022-09-23T17:46:52.588Z,28.93
2022-09-23T17:49:44.370Z,28.95
2022-09-23T17:52:34.631Z,28.96
2022-09-23T17:55:29.069Z,28.90
2022-09-23T17:58:20.386Z,28.89
2022-09-23T18:01:18.922Z,28.87
2022-09-23T18:04:09.175Z,28.87
2022-09-23T18:06:59.729Z,28.86
2022-09-23T18:09:49.660Z,28.87
2022-09-23T18:12:39.581Z,28.85
2022-09-23T18:15:34.601Z,28.84
2022-09-23T18:18:25.143Z,28.80
2022-09-23T18:21:15.248Z,28.79
2022-09-23T18:27:18.693Z,28.73
2022-09-23T18:30:09.268Z,28.63
2022-09-23T18:33:00.241Z,28.55
2022-09-23T18:35:50.037Z,28.50
2022-09-23T18:38:42.307Z,28.42
2022-09-23T18:41:33.315Z,28.36
2022-09-23T18:44:25.050Z,28.34
2022-09-23T18:47:37.226Z,28.31
2022-09-23T18:50:44.438Z,28.28
2022-09-23T18:53:34.453Z,28.28
2022-09-23T18:56:24.515Z,28.25
2022-09-23T18:59:22.660Z,28.25
2022-09-23T19:02:16.834Z,28.27
2022-09-23T19:05:14.845Z,28.24
2022-09-23T19:08:05.469Z,28.22
2022-09-23T19:11:00.535Z,28.28
2022-09-23T19:13:56.446Z,28.26
2022-09-23T19:16:46.575Z,28.21
2022-09-23T19:19:37.222Z,28.21
2022-09-23T19:22:27.689Z,28.20
2022-09-23T19:25:18.885Z,28.13
2022-09-23T19:28:09.854Z,28.18
2022-09-23T19:31:00.516Z,28.15
2022-09-23T19:34:01.505Z,28.16
2022-09-23T19:36:53.104Z,28.15
2022-09-23T19:39:43.865Z,28.15
2022-09-23T19:42:34.429Z,28.19
2022-09-23T19:45:24.411Z,28.13
2022-09-23T19:48:14.558Z,28.13
2022-09-23T19:51:05.270Z,28.11
2022-09-23T19:53:55.685Z,28.09
2022-09-23T19:56:46.378Z,28.09
2022-09-23T19:59:36.858Z,28.06
2022-09-23T20:02:28.326Z,28.06
2022-09-23T20:05:21.849Z,28.05
2022-09-23T20:08:11.875Z,28.05
2022-09-23T20:11:10.141Z,28.08
2022-09-23T20:14:05.231Z,28.04
2022-09-23T20:16:54.804Z,28.05
2022-09-23T20:19:46.054Z,28.04
2022-09-23T20:22:36.472Z,28.01
2022-09-23T20:25:26.733Z,27.98
2022-09-23T20:28:17.890Z,27.95
2022-09-23T20:31:08.471Z,27.96
2022-09-23T20:34:03.116Z,27.97
2022-09-23T20:36:53.282Z,27.97
2022-09-23T20:39:45.259Z,27.97
2022-09-23T20:42:36.601Z,27.96
2022-09-23T20:45:28.923Z,27.95
2022-09-23T20:48:19.683Z,27.94
2022-09-23T20:51:12.842Z,27.93
2022-09-23T20:54:03.603Z,27.89
2022-09-23T20:56:54.956Z,27.89
2022-09-23T20:59:48.549Z,27.84
2022-09-23T21:02:38.710Z,27.89
2022-09-23T21:05:28.776Z,27.90
2022-09-23T21:08:18.821Z,27.89
2022-09-23T21:11:14.618Z,27.85
2022-09-23T21:14:05.163Z,27.88
2022-09-23T21:16:58.733Z,27.84
2022-09-23T21:19:48.778Z,27.86
2022-09-23T21:22:38.876Z,27.83
2022-09-23T21:25:29.752Z,27.84
2022-09-23T21:28:20.921Z,27.84
2022-09-23T21:31:16.571Z,27.79
2022-09-23T21:34:09.065Z,27.78
2022-09-23T21:36:59.482Z,27.76
2022-09-23T21:40:09.107Z,27.76
2022-09-23T21:43:02.895Z,27.75
2022-09-23T21:46:03.729Z,27.76
2022-09-23T21:48:56.532Z,27.76
2022-09-23T21:51:46.389Z,27.77
2022-09-23T21:54:37.596Z,27.75
2022-09-23T21:57:28.230Z,27.70
2022-09-23T22:00:19.407Z,27.71
2022-09-23T22:03:13.435Z,27.68
2022-09-23T22:06:15.382Z,27.68
2022-09-23T22:09:12.078Z,27.66
2022-09-23T22:12:13.100Z,27.67
2022-09-23T22:15:06.296Z,27.66
2022-09-23T22:17:56.706Z,27.67
2022-09-23T22:20:48.436Z,27.65
2022-09-23T22:23:40.998Z,27.68
2022-09-23T22:26:43.646Z,27.67
2022-09-23T22:29:52.070Z,27.67
2022-09-23T22:32:42.469Z,27.67
2022-09-23T22:35:32.024Z,27.68
2022-09-23T22:38:22.101Z,27.66
2022-09-23T22:41:16.662Z,27.70
2022-09-23T22:44:07.677Z,27.69
2022-09-23T22:47:00.179Z,27.66
2022-09-23T22:49:50.777Z,27.68
2022-09-23T22:52:40.930Z,27.65
2022-09-23T22:55:31.437Z,27.68
2022-09-23T22:58:32.382Z,27.74
2022-09-23T23:01:25.108Z,27.73
2022-09-23T23:04:16.231Z,27.73
2022-09-23T23:07:08.024Z,27.71
2022-09-23T23:10:00.203Z,27.70
2022-09-23T23:12:53.598Z,27.68
2022-09-23T23:15:48.315Z,27.75
2022-09-23T23:18:43.747Z,27.75
2022-09-23T23:21:35.375Z,27.74
2022-09-23T23:24:26.766Z,27.81
2022-09-23T23:27:17.816Z,27.79
2022-09-23T23:30:09.779Z,27.82
2022-09-23T23:33:00.417Z,27.89
2022-09-23T23:35:53.813Z,27.84
2022-09-23T23:38:46.461Z,27.88
2022-09-23T23:41:37.150Z,27.95
2022-09-23T23:44:31.018Z,27.98
2022-09-23T23:47:22.800Z,27.97
2022-09-23T23:50:14.623Z,27.97
2022-09-23T23:53:06.864Z,27.97
2022-09-23T23:55:59.351Z,28.01
2022-09-23T23:58:49.834Z,28.01
